createdAt,value
2022-09-28T00:01:38.613Z,22.79
2022-09-28T00:06:42.400Z,22.77
2022-09-28T00:11:48.819Z,22.78
2022-09-28T00:16:52.108Z,22.75
2022-09-28T00:21:56.134Z,22.72
2022-09-28T00:27:00.060Z,22.71
2022-09-28T00:32:10.409Z,22.70
2022-09-28T00:37:14.975Z,22.70
2022-09-28T00:42:22.488Z,22.68
2022-09-28T00:47:36.965Z,22.66
2022-09-28T00:52:54.204Z,22.62
2022-09-28T00:57:59.969Z,22.57
2022-09-28T01:03:04.426Z,22.53
2022-09-28T01:08:09.738Z,22.50
2022-09-28T01:13:14.723Z,22.48
2022-09-28T01:18:43.336Z,22.46
2022-09-28T01:24:14.714Z,22.44
2022-09-28T01:29:45.672Z,22.39
2022-09-28T01:35:10.270Z,22.37
2022-09-28T01:40:15.739Z,22.33
2022-09-28T01:45:24.270Z,22.30
2022-09-28T01:50:31.359Z,22.27
2022-09-28T01:55:45.398Z,22.24
2022-09-28T02:00:57.369Z,22.25
2022-09-28T02:06:12.968Z,22.20
2022-09-28T02:11:21.373Z,22.23
2022-09-28T02:16:40.314Z,22.24
2022-09-28T02:22:08.969Z,22.21
2022-09-28T02:27:38.992Z,22.26
2022-09-28T02:32:50.501Z,22.29
2022-09-28T02:37:57.910Z,22.26
2022-09-28T02:43:16.375Z,22.21
2022-09-28T02:48:44.223Z,22.17
2022-09-28T02:54:18.943Z,22.13
2022-09-28T02:59:35.844Z,22.05
2022-09-28T03:04:57.304Z,22.05
2022-09-28T03:10:23.634Z,22.03
2022-09-28T03:15:29.624Z,22.02
2022-09-28T03:20:34.151Z,21.99
2022-09-28T03:25:38.176Z,21.99
2022-09-28T03:30:41.699Z,21.97
2022-09-28T03:35:49.759Z,21.95
2022-09-28T03:40:59.928Z,21.96
2022-09-28T03:46:07.973Z,22.01
2022-09-28T03:51:16.567Z,22.00
2022-09-28T03:56:20.072Z,22.02
2022-09-28T04:01:23.828Z,22.01
2022-09-28T04:06:27.896Z,21.99
2022-09-28T04:11:47.573Z,22.05
2022-09-28T04:16:55.222Z,22.10
2022-09-28T04:22:02.257Z,22.17
2022-09-28T04:27:10.042Z,22.23
2022-09-28T04:32:17.526Z,22.32
2022-09-28T04:37:29.883Z,22.36
2022-09-28T04:42:33.651Z,22.44
2022-09-28T04:47:37.422Z,22.54
2022-09-28T04:53:06.658Z,23.35
2022-09-28T04:58:10.138Z,25.25
2022-09-28T05:03:13.608Z,26.61
2022-09-28T05:08:42.528Z,27.67
2022-09-28T05:13:46.779Z,27.79
2022-09-28T05:18:58.212Z,27.05
2022-09-28T05:24:02.151Z,26.44
2022-09-28T05:29:05.773Z,25.99
2022-09-28T05:34:27.875Z,25.70
2022-09-28T05:39:31.640Z,25.40
2022-09-28T05:44:36.392Z,25.16
2022-09-28T05:49:40.092Z,25.00
2022-09-28T05:54:44.272Z,24.96
2022-09-28T05:59:47.661Z,24.89
2022-09-28T06:04:51.264Z,24.87
2022-09-28T06:09:54.993Z,24.83
2022-09-28T06:15:15.194Z,24.84
2022-09-28T06:20:19.624Z,24.84
2022-09-28T06:25:51.725Z,24.85
2022-09-28T06:30:55.279Z,24.89
2022-09-28T06:36:00.198Z,24.96
2022-09-28T06:41:04.447Z,25.00
2022-09-28T06:46:10.239Z,25.10
2022-09-28T06:51:25.927Z,25.18
2022-09-28T06:56:53.603Z,25.23
2022-09-28T07:01:57.086Z,25.29
2022-09-28T07:07:19.068Z,25.34
2022-09-28T07:12:38.241Z,25.39
2022-09-28T07:18:02.834Z,25.41
2022-09-28T07:23:18.413Z,25.51
2022-09-28T07:28:41.218Z,25.52
2022-09-28T07:34:05.335Z,25.48
2022-09-28T07:39:23.988Z,25.54
2022-09-28T07:44:27.671Z,25.65
2022-09-28T07:49:31.344Z,25.82
2022-09-28T07:54:58.843Z,26.11
2022-09-28T08:00:36.234Z,26.51
2022-09-28T08:05:40.747Z,26.75
2022-09-28T08:10:47.350Z,26.95
2022-09-28T08:16:20.188Z,26.85
2022-09-28T08:21:30.134Z,26.80
2022-09-28T08:26:33.544Z,26.69
2022-09-28T08:31:37.163Z,26.64
2022-09-28T08:36:58.323Z,26.66
2022-09-28T08:42:42.147Z,26.75
2022-09-28T08:48:28.631Z,26.86
2022-09-28T08:54:00.207Z,26.85
2022-09-28T08:59:18.860Z,26.94
2022-09-28T09:04:27.936Z,26.99
2022-09-28T09:10:12.635Z,27.04
2022-09-28T09:15:26.458Z,27.12
2022-09-28T09:20:51.259Z,27.15
2022-09-28T09:26:39.816Z,27.11
2022-09-28T09:31:55.609Z,27.17
2022-09-28T09:36:58.913Z,27.11
2022-09-28T09:42:42.813Z,26.94
2022-09-28T09:48:30.083Z,26.96
2022-09-28T09:53:41.232Z,27.05
2022-09-28T09:58:54.373Z,27.14
2022-09-28T10:04:14.442Z,27.22
2022-09-28T10:09:26.759Z,27.15
2022-09-28T10:14:48.386Z,26.95
2022-09-28T10:19:51.840Z,26.90
2022-09-28T10:25:14.671Z,26.77
2022-09-28T10:30:19.681Z,26.80
2022-09-28T10:35:29.922Z,26.84
2022-09-28T10:40:50.775Z,26.81
2022-09-28T10:46:11.315Z,26.80
2022-09-28T10:51:17.249Z,26.73
2022-09-28T10:56:29.072Z,26.60
2022-09-28T11:01:39.550Z,26.54
2022-09-28T11:06:43.467Z,26.42
2022-09-28T11:11:48.719Z,26.44
2022-09-28T11:17:30.669Z,26.46
2022-09-28T11:22:34.769Z,26.46
2022-09-28T11:27:53.144Z,26.49
2022-09-28T11:33:03.830Z,26.53
2022-09-28T11:38:43.595Z,26.52
2022-09-28T11:44:30.992Z,26.52
2022-09-28T11:49:53.522Z,26.56
2022-09-28T11:55:07.362Z,26.57
2022-09-28T12:00:21.847Z,26.58
2022-09-28T12:05:39.508Z,26.63
2022-09-28T12:10:59.536Z,26.62
2022-09-28T12:17:01.002Z,26.60
2022-09-28T12:21:52.914Z,26.52
2022-09-28T12:27:08.613Z,26.45
2022-09-28T12:32:33.533Z,26.43
2022-09-28T12:37:59.988Z,26.37
2022-09-28T12:43:38.992Z,26.43
2022-09-28T12:55:19.210Z,26.41
2022-09-28T13:00:25.502Z,26.42
2022-09-28T13:05:49.010Z,26.40
2022-09-28T13:11:08.157Z,26.28
2022-09-28T13:16:33.493Z,26.20
2022-09-28T13:21:57.111Z,26.15
2022-09-28T13:27:11.512Z,26.16
2022-09-28T13:32:18.673Z,26.12
2022-09-28T13:37:25.587Z,26.09
2022-09-28T13:42:46.777Z,26.05
2022-09-28T13:48:08.472Z,26.03
2022-09-28T13:53:20.768Z,26.03
2022-09-28T13:58:34.004Z,26.01
2022-09-28T14:03:37.287Z,25.96
2022-09-28T14:09:05.886Z,25.89
2022-09-28T14:14:09.067Z,25.77
2022-09-28T14:19:18.252Z,25.71
2022-09-28T14:24:46.702Z,25.67
2022-09-28T14:30:05.638Z,25.61
2022-09-28T14:35:19.830Z,25.52
2022-09-28T14:40:57.039Z,25.47
2022-09-28T14:46:09.345Z,25.37
2022-09-28T14:51:32.856Z,25.31
2022-09-28T14:56:45.922Z,25.19
2022-09-28T15:02:11.896Z,25.11
2022-09-28T15:07:44.117Z,24.96
2022-09-28T15:12:47.827Z,24.85
2022-09-28T15:18:04.196Z,24.74
2022-09-28T15:23:43.726Z,24.63
2022-09-28T15:28:50.103Z,24.51
2022-09-28T15:33:53.778Z,24.39
2022-09-28T15:39:22.656Z,24.31
2022-09-28T15:44:34.422Z,24.22
2022-09-28T15:49:56.604Z,24.18
2022-09-28T15:55:02.238Z,24.12
2022-09-28T16:00:22.968Z,24.10
2022-09-28T16:05:50.493Z,24.05
2022-09-28T16:10:57.126Z,24.02
2022-09-28T16:16:01.131Z,23.97
2022-09-28T16:21:23.724Z,23.95
2022-09-28T16:26:35.091Z,23.90
2022-09-28T16:31:38.800Z,23.88
2022-09-28T16:36:45.613Z,23.86
2022-09-28T16:41:56.159Z,23.82
2022-09-28T16:46:59.650Z,23.78
2022-09-28T16:52:03.055Z,23.76
2022-09-28T16:57:09.803Z,23.75
2022-09-28T17:02:45.285Z,23.72
2022-09-28T17:07:45.165Z,23.69
2022-09-28T17:12:49.141Z,23.65
2022-09-28T17:17:52.543Z,23.63
2022-09-28T17:22:56.047Z,23.62
2022-09-28T17:27:59.477Z,23.59
2022-09-28T17:33:02.826Z,23.58
2022-09-28T17:38:06.094Z,23.55
2022-09-28T17:43:10.336Z,23.53
2022-09-28T17:48:19.868Z,23.52
2022-09-28T17:53:23.426Z,23.50
2022-09-28T17:58:26.847Z,23.48
2022-09-28T18:03:30.264Z,23.48
2022-09-28T18:08:34.371Z,23.46
2022-09-28T18:13:38.549Z,23.45
2022-09-28T18:18:41.766Z,23.43
2022-09-28T18:23:45.453Z,23.42
2022-09-28T18:28:48.871Z,23.43
2022-09-28T18:33:57.804Z,23.41
2022-09-28T18:39:01.551Z,23.39
2022-09-28T18:44:05.216Z,23.35
2022-09-28T18:49:08.787Z,23.37
2022-09-28T18:54:12.466Z,23.37
2022-09-28T18:59:16.071Z,23.38
2022-09-28T19:04:19.711Z,23.37
2022-09-28T19:09:23.991Z,23.37
2022-09-28T19:14:27.644Z,23.34
2022-09-28T19:19:30.879Z,23.33
2022-09-28T19:24:34.137Z,23.34
2022-09-28T19:29:37.380Z,23.31
2022-09-28T19:34:40.816Z,23.30
2022-09-28T19:39:43.885Z,23.28
2022-09-28T19:44:48.165Z,23.27
2022-09-28T19:49:51.757Z,23.26
2022-09-28T19:54:55.515Z,23.25
2022-09-28T20:00:02.798Z,23.24
2022-09-28T20:05:09.786Z,23.22
2022-09-28T20:10:13.297Z,23.23
2022-09-28T20:15:16.703Z,23.22
2022-09-28T20:20:20.458Z,23.20
2022-09-28T20:25:23.964Z,23.20
2022-09-28T20:30:29.344Z,23.18
2022-09-28T20:35:36.138Z,23.18
2022-09-28T20:40:39.718Z,23.15
2022-09-28T20:45:43.734Z,23.13
2022-09-28T20:50:48.490Z,23.11
2022-09-28T20:56:02.995Z,23.09
2022-09-28T21:01:16.097Z,23.09
2022-09-28T21:06:24.070Z,23.06
2022-09-28T21:11:29.428Z,23.07
2022-09-28T21:16:33.948Z,23.06
2022-09-28T21:21:37.832Z,23.06
2022-09-28T21:26:41.273Z,23.03
2022-09-28T21:31:46.237Z,23.00
2022-09-28T21:36:50.330Z,22.99
2022-09-28T21:41:53.652Z,22.98
2022-09-28T21:46:57.528Z,22.98
2022-09-28T21:52:01.245Z,22.95
2022-09-28T21:57:05.060Z,22.94
2022-09-28T22:02:08.891Z,22.93
2022-09-28T22:07:12.488Z,22.92
2022-09-28T22:12:16.747Z,22.92
2022-09-28T22:17:20.544Z,22.90
2022-09-28T22:22:28.386Z,22.90
2022-09-28T22:27:32.948Z,22.88
2022-09-28T22:32:36.249Z,22.87
2022-09-28T22:37:39.902Z,22.87
2022-09-28T22:42:43.718Z,22.86
2022-09-28T22:47:47.501Z,22.85
2022-09-28T22:52:51.073Z,22.85
2022-09-28T22:57:54.520Z,22.84
2022-09-28T23:02:58.159Z,22.83
2022-09-28T23:08:03.101Z,22.84
2022-09-28T23:13:06.731Z,22.83
2022-09-28T23:18:10.754Z,22.85
2022-09-28T23:23:14.846Z,22.84
2022-09-28T23:28:19.987Z,22.83
2022-09-28T23:33:23.728Z,22.81
2022-09-28T23:38:27.448Z,22.82
2022-09-28T23:43:31.270Z,22.82
2022-09-28T23:48:34.604Z,22.79
2022-09-28T23:53:38.247Z,22.78
2022-09-28T23:58:44.919Z,22.78
